Etna Green, Indiana
Current Conditions -  °F | °C
As of 9:55 PM on Saturday 27 Dec 2014 (Local Time) from KASW Reporting Station
Broken Clouds Broken Clouds  
Wind Chill: 26°   Ceiling: 2300
Heat Index: 34°   Visibility: 10mi
Dew Point: 32°   Wind: 9mph
Humidity: 93%   Direction: 280°W
Pressure: 30.07"   Gusts: NA
Location:  41.28°N, 86.05°W
Report Text: KASW 280255Z AUTO 28008KT 10SM BKN023 BKN048 01/00 A3007 RMK AO2 P0001
Loading
Personal Weather Stations






























Interactive Weather Map New forecast layout! Learn more

10-Day Weather Forecast

Advertisements
Track Severe Weather on mobile